Wetterdaten: Woche 12.09.05 - 18.09.05 (KW37)
Datum Zeit Temperatur Luftfeuchte Luftdruck Niederschlag Wind Richtung Sonne Solar Taupunkt Windchill
12.09.2005 00:00 15.0 C 95 % 1011.3 hPa 0.3 l/m 0.0 km/h (0 Bft) N 0.00 h 0 W/m 14.2 C 15.0 C
12.09.2005 01:00 14.8 C 98 % 1011.3 hPa 0.0 l/m 0.2 km/h (0 Bft) O 0.00 h 0 W/m 14.5 C 14.8 C
12.09.2005 02:00 15.2 C 98 % 1011.3 hPa 0.0 l/m 0.3 km/h (0 Bft) O 0.00 h 0 W/m 14.9 C 15.2 C
12.09.2005 03:00 15.0 C 98 % 1011.3 hPa 0.0 l/m 0.0 km/h (0 Bft) N 0.00 h 0 W/m 14.7 C 15.0 C
12.09.2005 04:00 14.8 C 100 % 1011.3 hPa 0.0 l/m 0.2 km/h (0 Bft) O 0.00 h 0 W/m 14.7 C 14.8 C
12.09.2005 05:00 15.1 C 99 % 1012.0 hPa 0.0 l/m 0.4 km/h (0 Bft) SO 0.00 h 0 W/m 14.9 C 15.1 C
12.09.2005 06:00 15.2 C 98 % 1012.3 hPa 0.0 l/m 0.1 km/h (0 Bft) N 0.00 h 0 W/m 15.0 C 15.2 C
12.09.2005 07:00 15.2 C 98 % 1012.8 hPa 0.0 l/m 0.8 km/h (0 Bft) W-NW 0.00 h 5 W/m 15.0 C 15.2 C
12.09.2005 08:00 15.3 C 94 % 1013.3 hPa 0.0 l/m 4.4 km/h (1 Bft) W-NW 0.00 h 30 W/m 14.4 C 15.3 C
12.09.2005 09:00 15.4 C 85 % 1013.9 hPa 0.0 l/m 3.0 km/h (1 Bft) S-SO 0.00 h 53 W/m 12.9 C 15.4 C
12.09.2005 10:00 15.4 C 84 % 1014.6 hPa 0.0 l/m 2.9 km/h (1 Bft) SO 0.00 h 90 W/m 12.7 C 15.4 C
12.09.2005 11:00 15.8 C 86 % 1015.4 hPa 0.0 l/m 5.3 km/h (1 Bft) O-SO 0.00 h 116 W/m 13.4 C 15.8 C
12.09.2005 12:00 17.3 C 78 % 1015.2 hPa 0.0 l/m 6.1 km/h (2 Bft) O-SO 0.40 h 441 W/m 13.4 C 17.3 C
12.09.2005 13:00 18.1 C 70 % 1015.7 hPa 0.0 l/m 8.0 km/h (2 Bft) W-NW 0.07 h 345 W/m 12.6 C 18.1 C
12.09.2005 14:00 18.8 C 66 % 1015.6 hPa 0.0 l/m 10.1 km/h (2 Bft) W-NW 0.27 h 425 W/m 12.3 C 18.8 C
12.09.2005 15:00 20.2 C 60 % 1015.0 hPa 0.0 l/m 11.3 km/h (2 Bft) W-NW 0.80 h 589 W/m 12.0 C 20.2 C
12.09.2005 16:00 20.5 C 58 % 1015.0 hPa 0.0 l/m 6.6 km/h (2 Bft) W-NW 0.30 h 313 W/m 11.8 C 20.5 C
12.09.2005 17:00 20.4 C 58 % 1015.8 hPa 0.0 l/m 7.0 km/h (2 Bft) W-NW 0.47 h 251 W/m 12.0 C 20.4 C
12.09.2005 18:00 21.0 C 56 % 1015.7 hPa 0.0 l/m 6.3 km/h (2 Bft) W-NW 0.90 h 219 W/m 11.9 C 21.0 C
12.09.2005 19:00 19.7 C 66 % 1015.9 hPa 0.0 l/m 3.7 km/h (1 Bft) W-NW 0.53 h 53 W/m 13.1 C 19.7 C
12.09.2005 20:00 18.2 C 74 % 1017.2 hPa 0.0 l/m 0.8 km/h (0 Bft) O 0.00 h 0 W/m 13.4 C 18.2 C
12.09.2005 21:00 17.3 C 85 % 1018.3 hPa 0.0 l/m 2.5 km/h (1 Bft) O 0.00 h 0 W/m 14.6 C 17.3 C
12.09.2005 22:00 16.3 C 90 % 1018.7 hPa 0.0 l/m 2.2 km/h (1 Bft) O 0.00 h 0 W/m 14.6 C 16.3 C
12.09.2005 23:00 16.0 C 93 % 1019.5 hPa 0.0 l/m 0.8 km/h (0 Bft) O 0.00 h 0 W/m 14.9 C 16.0 C
13.09.2005 00:00 16.1 C 93 % 1019.5 hPa 0.0 l/m 0.0 km/h (0 Bft) N 0.00 h 0 W/m 14.9 C 16.1 C
13.09.2005 01:00 16.0 C 93 % 1020.5 hPa 0.0 l/m 0.0 km/h (0 Bft) N 0.00 h 0 W/m 14.9 C 16.0 C
13.09.2005 02:00 15.7 C 95 % 1020.6 hPa 0.0 l/m 0.0 km/h (0 Bft) N 0.00 h 0 W/m 14.9 C 15.7 C
13.09.2005 03:00 15.2 C 96 % 1020.6 hPa 0.0 l/m 0.0 km/h (0 Bft) N 0.00 h 0 W/m 14.6 C 15.2 C
13.09.2005 04:00 15.2 C 98 % 1020.6 hPa 0.0 l/m 0.0 km/h (0 Bft) N 0.00 h 0 W/m 14.8 C 15.2 C
13.09.2005 05:00 15.4 C 99 % 1020.8 hPa 0.0 l/m 0.0 km/h (0 Bft) N 0.00 h 0 W/m 15.2 C 15.4 C
13.09.2005 06:00 15.5 C 97 % 1021.6 hPa 0.0 l/m 0.0 km/h (0 Bft) N 0.00 h 0 W/m 15.1 C 15.5 C
13.09.2005 07:00 15.7 C 94 % 1021.6 hPa 0.0 l/m 0.2 km/h (0 Bft) O 0.00 h 14 W/m 14.8 C 15.7 C
13.09.2005 08:00 15.9 C 90 % 1021.6 hPa 0.0 l/m 0.1 km/h (0 Bft) O 0.00 h 38 W/m 14.3 C 15.9 C
13.09.2005 09:00 16.3 C 88 % 1022.5 hPa 0.0 l/m 0.1 km/h (0 Bft) O 0.00 h 61 W/m 14.3 C 16.3 C
13.09.2005 10:00 17.0 C 85 % 1022.8 hPa 0.0 l/m 0.0 km/h (0 Bft) N 0.00 h 147 W/m 14.5 C 17.0 C
13.09.2005 11:00 17.8 C 79 % 1023.4 hPa 0.0 l/m 0.3 km/h (0 Bft) W-NW 0.00 h 273 W/m 14.2 C 17.8 C
13.09.2005 12:00 19.0 C 74 % 1022.3 hPa 0.0 l/m 0.5 km/h (0 Bft) W-NW 0.78 h 480 W/m 14.3 C 19.0 C
13.09.2005 13:00 20.3 C 69 % 1022.0 hPa 0.0 l/m 4.0 km/h (1 Bft) W-NW 0.90 h 588 W/m 14.3 C 20.3 C
13.09.2005 14:00 21.8 C 63 % 1021.8 hPa 0.0 l/m 2.8 km/h (1 Bft) W-NW 0.45 h 490 W/m 14.4 C 21.8 C
13.09.2005 15:00 22.5 C 59 % 1021.8 hPa 0.0 l/m 3.1 km/h (1 Bft) NW 0.48 h 416 W/m 14.1 C 22.5 C
13.09.2005 16:00 22.6 C 58 % 1021.6 hPa 0.0 l/m 0.5 km/h (0 Bft) W-NW 0.78 h 441 W/m 14.0 C 22.6 C
13.09.2005 17:00 22.6 C 57 % 1020.8 hPa 0.0 l/m 0.3 km/h (0 Bft) N 0.37 h 209 W/m 13.7 C 22.6 C
13.09.2005 18:00 21.3 C 66 % 1021.6 hPa 0.0 l/m 5.6 km/h (1 Bft) W-NW 0.43 h 131 W/m 14.5 C 21.3 C
13.09.2005 19:00 18.6 C 80 % 1022.2 hPa 0.0 l/m 1.0 km/h (0 Bft) W-NW 0.00 h 22 W/m 15.0 C 18.6 C
13.09.2005 20:00 17.9 C 85 % 1023.2 hPa 0.0 l/m 0.0 km/h (0 Bft) N 0.00 h 0 W/m 15.3 C 17.9 C
13.09.2005 21:00 17.7 C 87 % 1024.0 hPa 0.0 l/m 0.0 km/h (0 Bft) N 0.00 h 0 W/m 15.4 C 17.7 C
13.09.2005 22:00 17.6 C 88 % 1024.5 hPa 0.0 l/m 0.0 km/h (0 Bft) N 0.00 h 0 W/m 15.5 C 17.6 C
13.09.2005 23:00 17.5 C 89 % 1024.5 hPa 0.0 l/m 0.0 km/h (0 Bft) N 0.00 h 0 W/m 15.6 C 17.5 C
14.09.2005 00:00 17.2 C 89 % 1024.5 hPa 0.0 l/m 0.0 km/h (0 Bft) N 0.00 h 0 W/m 15.4 C 17.2 C
14.09.2005 01:00 15.4 C 94 % 1024.8 hPa 0.0 l/m 0.0 km/h (0 Bft) N 0.00 h 0 W/m 14.4 C 15.4 C
14.09.2005 02:00 15.7 C 97 % 1024.7 hPa 0.0 l/m 0.0 km/h (0 Bft) N 0.00 h 0 W/m 15.3 C 15.7 C
14.09.2005 03:00 14.9 C 98 % 1024.4 hPa 0.0 l/m 0.0 km/h (0 Bft) N 0.00 h 0 W/m 14.6 C 14.9 C
14.09.2005 04:00 14.2 C 99 % 1023.9 hPa 0.0 l/m 2.3 km/h (1 Bft) O 0.00 h 0 W/m 14.1 C 14.2 C
14.09.2005 05:00 14.4 C 100 % 1023.8 hPa 0.0 l/m 2.1 km/h (1 Bft) O-SO 0.00 h 0 W/m 14.4 C 14.4 C
14.09.2005 06:00 15.1 C 100 % 1024.6 hPa 0.0 l/m 0.0 km/h (0 Bft) N 0.00 h 0 W/m 15.1 C 15.1 C
14.09.2005 07:00 15.3 C 99 % 1024.8 hPa 0.0 l/m 0.3 km/h (0 Bft) O-SO 0.00 h 9 W/m 15.1 C 15.3 C
14.09.2005 08:00 15.7 C 94 % 1024.7 hPa 0.0 l/m 0.4 km/h (0 Bft) O-SO 0.00 h 44 W/m 14.8 C 15.7 C
14.09.2005 09:00 16.3 C 91 % 1025.7 hPa 0.0 l/m 0.7 km/h (0 Bft) W-NW 0.30 h 198 W/m 14.7 C 16.3 C
14.09.2005 10:00 17.7 C 85 % 1025.5 hPa 0.0 l/m 0.7 km/h (0 Bft) W-NW 0.17 h 254 W/m 15.0 C 17.7 C
14.09.2005 11:00 18.5 C 79 % 1025.4 hPa 0.0 l/m 0.3 km/h (0 Bft) O-SO 0.00 h 163 W/m 14.8 C 18.5 C
14.09.2005 12:00 19.5 C 74 % 1025.0 hPa 0.0 l/m 0.5 km/h (0 Bft) SO 0.00 h 249 W/m 14.7 C 19.5 C
14.09.2005 13:00 20.5 C 69 % 1024.1 hPa 0.0 l/m 1.9 km/h (1 Bft) O-SO 0.23 h 402 W/m 14.7 C 20.5 C
14.09.2005 14:00 21.1 C 64 % 1024.0 hPa 0.0 l/m 1.0 km/h (0 Bft) W-NW 0.10 h 346 W/m 14.0 C 21.1 C
14.09.2005 15:00 21.2 C 64 % 1023.7 hPa 0.0 l/m 5.0 km/h (1 Bft) W-NW 0.00 h 268 W/m 14.2 C 21.2 C
14.09.2005 16:00 21.0 C 65 % 1023.8 hPa 0.0 l/m 8.7 km/h (2 Bft) W-NW 0.07 h 229 W/m 14.0 C 21.0 C
14.09.2005 17:00 20.7 C 65 % 1023.4 hPa 0.0 l/m 4.4 km/h (1 Bft) W 0.03 h 151 W/m 14.0 C 20.7 C
14.09.2005 18:00 20.3 C 66 % 1023.1 hPa 0.0 l/m 20.6 km/h (4 Bft) W-NW 0.03 h 75 W/m 13.8 C 20.3 C
14.09.2005 19:00 19.6 C 69 % 1023.2 hPa 0.0 l/m 23.7 km/h (4 Bft) W-NW 0.00 h 13 W/m 13.8 C 19.6 C
14.09.2005 20:00 18.0 C 75 % 1024.3 hPa 0.0 l/m 11.9 km/h (2 Bft) W-NW 0.00 h 0 W/m 13.5 C 18.0 C
14.09.2005 21:00 16.4 C 82 % 1025.0 hPa 0.0 l/m 0.2 km/h (0 Bft) W-NW 0.00 h 0 W/m 13.2 C 16.4 C
14.09.2005 22:00 15.5 C 89 % 1025.8 hPa 0.0 l/m 1.9 km/h (1 Bft) W-NW 0.00 h 0 W/m 13.7 C 15.5 C
14.09.2005 23:00 14.5 C 93 % 1025.9 hPa 0.0 l/m 1.1 km/h (1 Bft) SO 0.00 h 0 W/m 13.4 C 14.5 C
15.09.2005 00:00 13.8 C 97 % 1025.9 hPa 0.0 l/m 3.9 km/h (1 Bft) SO 0.00 h 0 W/m 13.4 C 13.8 C
15.09.2005 01:00 13.1 C 98 % 1025.1 hPa 0.0 l/m 0.3 km/h (0 Bft) SO 0.00 h 0 W/m 12.8 C 13.1 C
15.09.2005 02:00 12.3 C 99 % 1025.2 hPa 0.0 l/m 0.1 km/h (0 Bft) SO 0.00 h 0 W/m 12.2 C 12.3 C
15.09.2005 03:00 11.4 C 100 % 1024.8 hPa 0.0 l/m 0.0 km/h (0 Bft) N 0.00 h 0 W/m 11.3 C 11.4 C
15.09.2005 04:00 11.4 C 100 % 1024.2 hPa 0.0 l/m 0.0 km/h (0 Bft) N 0.00 h 0 W/m 11.4 C 11.4 C
15.09.2005 05:00 12.3 C 100 % 1024.1 hPa 0.0 l/m 0.0 km/h (0 Bft) N 0.00 h 0 W/m 12.3 C 12.3 C
15.09.2005 06:00 12.5 C 100 % 1024.1 hPa 0.0 l/m 0.0 km/h (0 Bft) N 0.00 h 0 W/m 12.5 C 12.5 C
15.09.2005 07:00 12.5 C 100 % 1024.1 hPa 0.0 l/m 0.0 km/h (0 Bft) N 0.00 h 19 W/m 12.5 C 12.5 C
15.09.2005 08:00 13.4 C 97 % 1024.0 hPa 0.0 l/m 0.0 km/h (0 Bft) N 0.37 h 136 W/m 12.9 C 13.4 C
15.09.2005 09:00 15.0 C 87 % 1023.8 hPa 0.0 l/m 0.3 km/h (0 Bft) O-SO 0.00 h 183 W/m 12.9 C 15.0 C
15.09.2005 10:00 16.5 C 81 % 1023.6 hPa 0.0 l/m 0.9 km/h (0 Bft) SO 0.13 h 256 W/m 13.2 C 16.5 C
15.09.2005 11:00 18.6 C 72 % 1022.5 hPa 0.0 l/m 2.7 km/h (1 Bft) O-SO 0.97 h 602 W/m 13.5 C 18.6 C
15.09.2005 12:00 20.1 C 64 % 1021.2 hPa 0.0 l/m 1.0 km/h (0 Bft) S-SO 0.30 h 402 W/m 13.1 C 20.1 C
15.09.2005 13:00 21.5 C 57 % 1020.1 hPa 0.0 l/m 9.7 km/h (2 Bft) W-NW 0.93 h 493 W/m 12.6 C 21.5 C
15.09.2005 14:00 21.8 C 56 % 1019.4 hPa 0.0 l/m 11.3 km/h (2 Bft) W-NW 0.33 h 337 W/m 12.6 C 21.8 C
15.09.2005 15:00 21.7 C 59 % 1018.7 hPa 0.0 l/m 9.0 km/h (2 Bft) W-NW 0.00 h 245 W/m 13.3 C 21.7 C
15.09.2005 16:00 21.9 C 58 % 1017.8 hPa 0.0 l/m 16.4 km/h (3 Bft) W-NW 0.20 h 255 W/m 13.2 C 21.9 C
15.09.2005 17:00 21.8 C 57 % 1017.4 hPa 0.0 l/m 12.9 km/h (3 Bft) W-NW 0.57 h 241 W/m 12.9 C 21.8 C
15.09.2005 18:00 21.2 C 62 % 1016.7 hPa 0.0 l/m 12.0 km/h (2 Bft) W-NW 0.60 h 146 W/m 13.7 C 21.2 C
15.09.2005 19:00 19.4 C 69 % 1016.5 hPa 0.0 l/m 1.8 km/h (1 Bft) W-NW 0.23 h 29 W/m 13.6 C 19.4 C
15.09.2005 20:00 17.3 C 82 % 1016.2 hPa 0.0 l/m 0.9 km/h (0 Bft) O-SO 0.00 h 0 W/m 14.1 C 17.3 C
15.09.2005 21:00 16.1 C 88 % 1016.4 hPa 0.0 l/m 2.0 km/h (1 Bft) O-SO 0.00 h 0 W/m 14.1 C 16.1 C
15.09.2005 22:00 14.7 C 93 % 1016.1 hPa 0.0 l/m 0.0 km/h (0 Bft) N 0.00 h 0 W/m 13.6 C 14.7 C
15.09.2005 23:00 13.9 C 97 % 1015.5 hPa 0.0 l/m 0.6 km/h (0 Bft) O-SO 0.00 h 0 W/m 13.5 C 13.9 C
16.09.2005 00:00 13.2 C 98 % 1014.8 hPa 0.0 l/m 0.2 km/h (0 Bft) O-SO 0.00 h 0 W/m 12.9 C 13.2 C
16.09.2005 01:00 12.8 C 99 % 1013.9 hPa 0.0 l/m 0.1 km/h (0 Bft) O-SO 0.00 h 0 W/m 12.7 C 12.8 C
16.09.2005 02:00 13.0 C 100 % 1013.2 hPa 0.0 l/m 0.0 km/h (0 Bft) N 0.00 h 0 W/m 13.0 C 13.0 C
16.09.2005 03:00 12.6 C 100 % 1012.6 hPa 0.0 l/m 0.1 km/h (0 Bft) N 0.00 h 0 W/m 12.6 C 12.6 C
16.09.2005 04:00 12.7 C 100 % 1011.6 hPa 0.0 l/m 0.0 km/h (0 Bft) N 0.00 h 0 W/m 12.7 C 12.7 C
16.09.2005 05:00 13.0 C 100 % 1011.1 hPa 0.0 l/m 0.2 km/h (0 Bft) O-SO 0.00 h 0 W/m 13.0 C 13.0 C
16.09.2005 06:00 14.4 C 100 % 1010.3 hPa 0.0 l/m 4.9 km/h (1 Bft) O-SO 0.00 h 0 W/m 14.4 C 14.4 C
16.09.2005 07:00 14.5 C 100 % 1010.3 hPa 0.0 l/m 3.0 km/h (1 Bft) O-SO 0.20 h 37 W/m 14.4 C 14.5 C
16.09.2005 08:00 15.9 C 89 % 1009.4 hPa 0.0 l/m 3.9 km/h (1 Bft) SO 0.83 h 182 W/m 14.1 C 15.9 C
16.09.2005 09:00 16.9 C 83 % 1009.0 hPa 0.0 l/m 14.1 km/h (3 Bft) SO 1.00 h 370 W/m 14.1 C 16.9 C
16.09.2005 10:00 18.5 C 76 % 1008.8 hPa 0.0 l/m 14.5 km/h (3 Bft) O-SO 0.87 h 439 W/m 14.1 C 18.5 C
16.09.2005 11:00 20.6 C 60 % 1007.6 hPa 0.0 l/m 14.6 km/h (3 Bft) W-NW 0.93 h 568 W/m 12.4 C 20.6 C
16.09.2005 12:00 21.3 C 53 % 1006.7 hPa 0.0 l/m 17.6 km/h (3 Bft) W-NW 0.20 h 276 W/m 11.4 C 21.3 C
16.09.2005 13:00 22.3 C 51 % 1005.9 hPa 0.0 l/m 13.2 km/h (3 Bft) W-NW 0.77 h 605 W/m 11.5 C 22.3 C
16.09.2005 14:00 22.4 C 49 % 1005.2 hPa 0.0 l/m 31.7 km/h (5 Bft) NW 0.27 h 404 W/m 11.2 C 22.4 C
16.09.2005 15:00 20.3 C 57 % 1005.8 hPa 0.0 l/m 34.6 km/h (5 Bft) NW 0.00 h 235 W/m 11.6 C 20.3 C
16.09.2005 16:00 18.7 C 70 % 1006.4 hPa 0.0 l/m 24.7 km/h (4 Bft) W-NW 0.53 h 338 W/m 13.1 C 18.7 C
16.09.2005 17:00 19.2 C 66 % 1005.6 hPa 0.0 l/m 22.7 km/h (4 Bft) W-NW 0.40 h 212 W/m 12.7 C 19.2 C
16.09.2005 18:00 16.7 C 89 % 1006.7 hPa 1.0 l/m 10.2 km/h (2 Bft) W-NW 0.00 h 19 W/m 14.9 C 16.7 C
16.09.2005 19:00 15.8 C 95 % 1007.0 hPa 2.0 l/m 1.7 km/h (1 Bft) SO 0.00 h 4 W/m 15.1 C 15.8 C
16.09.2005 20:00 15.0 C 97 % 1007.1 hPa 1.3 l/m 1.4 km/h (1 Bft) O-SO 0.00 h 0 W/m 14.6 C 15.0 C
16.09.2005 21:00 13.8 C 97 % 1008.4 hPa 1.0 l/m 4.5 km/h (1 Bft) NO 0.00 h 0 W/m 13.3 C 13.8 C
16.09.2005 22:00 12.0 C 96 % 1009.9 hPa 0.6 l/m 0.1 km/h (0 Bft) N 0.00 h 0 W/m 11.5 C 12.0 C
16.09.2005 23:00 11.0 C 93 % 1010.6 hPa 0.3 l/m 4.7 km/h (1 Bft) N-NO 0.00 h 0 W/m 9.9 C 11.0 C
17.09.2005 00:00 9.5 C 90 % 1012.0 hPa 1.0 l/m 0.7 km/h (0 Bft) N 0.00 h 0 W/m 7.9 C 9.5 C
17.09.2005 01:00 9.1 C 95 % 1012.4 hPa 2.3 l/m 0.3 km/h (0 Bft) O-NO 0.00 h 0 W/m 8.3 C 9.1 C
17.09.2005 02:00 8.8 C 98 % 1013.1 hPa 1.6 l/m 0.9 km/h (0 Bft) O-NO 0.00 h 0 W/m 8.4 C 8.7 C
17.09.2005 03:00 8.7 C 98 % 1012.8 hPa 0.3 l/m 0.2 km/h (0 Bft) N 0.00 h 0 W/m 8.5 C 8.7 C
17.09.2005 04:00 8.9 C 98 % 1013.2 hPa 0.6 l/m 0.1 km/h (0 Bft) N 0.00 h 0 W/m 8.7 C 8.9 C
17.09.2005 05:00 9.1 C 99 % 1013.8 hPa 1.0 l/m 0.0 km/h (0 Bft) N 0.00 h 0 W/m 9.1 C 9.1 C
17.09.2005 06:00 9.6 C 100 % 1014.1 hPa 1.0 l/m 0.0 km/h (0 Bft) N 0.00 h 0 W/m 9.5 C 9.6 C
17.09.2005 07:00 9.7 C 100 % 1015.1 hPa 1.3 l/m 0.0 km/h (0 Bft) N 0.00 h 6 W/m 9.7 C 9.7 C
17.09.2005 08:00 9.7 C 100 % 1015.9 hPa 0.6 l/m 0.0 km/h (0 Bft) N 0.00 h 21 W/m 9.7 C 9.7 C
17.09.2005 09:00 9.4 C 100 % 1016.2 hPa 1.3 l/m 0.2 km/h (0 Bft) NO 0.00 h 64 W/m 9.3 C 9.4 C
17.09.2005 10:00 9.4 C 96 % 1016.9 hPa 1.0 l/m 0.0 km/h (0 Bft) N 0.00 h 55 W/m 8.8 C 9.4 C
17.09.2005 11:00 10.0 C 95 % 1017.2 hPa 0.3 l/m 0.1 km/h (0 Bft) N 0.00 h 106 W/m 9.2 C 10.0 C
17.09.2005 12:00 10.9 C 93 % 1017.1 hPa 0.0 l/m 0.4 km/h (0 Bft) O-SO 0.00 h 240 W/m 9.7 C 10.9 C
17.09.2005 13:00 10.9 C 91 % 1018.1 hPa 0.0 l/m 5.9 km/h (2 Bft) O-SO 0.00 h 214 W/m 9.5 C 10.9 C
17.09.2005 14:00 11.5 C 84 % 1018.0 hPa 0.0 l/m 3.0 km/h (1 Bft) O-SO 0.13 h 214 W/m 9.0 C 11.5 C
17.09.2005 15:00 11.4 C 88 % 1018.0 hPa 0.0 l/m 3.4 km/h (1 Bft) O 0.00 h 128 W/m 9.4 C 11.4 C
17.09.2005 16:00 12.0 C 79 % 1017.9 hPa 0.0 l/m 8.6 km/h (2 Bft) O-SO 0.07 h 164 W/m 8.5 C 12.0 C
17.09.2005 17:00 11.5 C 80 % 1018.0 hPa 0.0 l/m 0.4 km/h (0 Bft) O 0.00 h 91 W/m 8.2 C 11.5 C
17.09.2005 18:00 11.3 C 76 % 1018.4 hPa 0.0 l/m 0.0 km/h (0 Bft) N 0.00 h 41 W/m 7.2 C 11.3 C
17.09.2005 19:00 10.8 C 82 % 1019.1 hPa 0.0 l/m 0.2 km/h (0 Bft) O-NO 0.00 h 9 W/m 7.9 C 10.8 C
17.09.2005 20:00 10.5 C 72 % 1020.1 hPa 0.0 l/m 0.2 km/h (0 Bft) N-NO 0.00 h 0 W/m 5.7 C 10.5 C
17.09.2005 21:00 9.8 C 72 % 1020.3 hPa 0.0 l/m 2.1 km/h (1 Bft) NO 0.00 h 0 W/m 4.9 C 9.6 C
17.09.2005 22:00 9.0 C 76 % 1020.6 hPa 0.0 l/m 1.7 km/h (1 Bft) N-NO 0.00 h 0 W/m 4.9 C 8.9 C
17.09.2005 23:00 8.0 C 83 % 1021.6 hPa 0.0 l/m 0.2 km/h (0 Bft) N 0.00 h 0 W/m 5.2 C 8.0 C
18.09.2005 00:00 7.7 C 83 % 1021.6 hPa 0.0 l/m 0.8 km/h (0 Bft) O-NO 0.00 h 0 W/m 5.0 C 7.7 C
18.09.2005 01:00 7.3 C 83 % 1021.4 hPa 0.0 l/m 0.8 km/h (0 Bft) O 0.00 h 0 W/m 4.5 C 7.2 C
18.09.2005 02:00 7.0 C 82 % 1021.4 hPa 0.0 l/m 0.5 km/h (0 Bft) O 0.00 h 0 W/m 4.1 C 7.0 C
18.09.2005 03:00 7.0 C 81 % 1020.8 hPa 0.0 l/m 0.1 km/h (0 Bft) N 0.00 h 0 W/m 4.0 C 7.0 C
18.09.2005 04:00 6.6 C 82 % 1021.0 hPa 0.0 l/m 1.3 km/h (1 Bft) O 0.00 h 0 W/m 3.8 C 6.4 C
18.09.2005 05:00 6.5 C 83 % 1020.8 hPa 0.0 l/m 1.8 km/h (1 Bft) O 0.00 h 0 W/m 3.9 C 6.3 C
18.09.2005 06:00 6.3 C 86 % 1021.0 hPa 0.0 l/m 0.8 km/h (0 Bft) O-NO 0.00 h 0 W/m 4.1 C 6.2 C
18.09.2005 07:00 6.4 C 87 % 1021.8 hPa 0.0 l/m 3.2 km/h (1 Bft) O 0.00 h 19 W/m 4.4 C 5.9 C
18.09.2005 08:00 7.8 C 82 % 1021.6 hPa 0.0 l/m 1.1 km/h (0 Bft) O-NO 0.00 h 47 W/m 5.0 C 7.7 C
18.09.2005 09:00 9.1 C 78 % 1021.5 hPa 0.0 l/m 0.3 km/h (0 Bft) N-NO 0.00 h 119 W/m 5.4 C 9.1 C
18.09.2005 10:00 10.2 C 74 % 1021.3 hPa 0.0 l/m 1.1 km/h (1 Bft) O-SO 0.00 h 98 W/m 5.8 C 10.2 C
18.09.2005 11:00 11.5 C 70 % 1021.1 hPa 0.0 l/m 10.6 km/h (2 Bft) NO 0.03 h 225 W/m 6.2 C 11.5 C
18.09.2005 12:00 12.0 C 67 % 1021.0 hPa 0.0 l/m 9.5 km/h (2 Bft) NO 0.00 h 146 W/m 6.0 C 12.0 C
18.09.2005 13:00 12.1 C 65 % 1021.0 hPa 0.0 l/m 10.1 km/h (2 Bft) NO 0.00 h 148 W/m 5.8 C 12.1 C
18.09.2005 14:00 12.5 C 65 % 1021.0 hPa 0.0 l/m 13.5 km/h (3 Bft) O-SO 0.00 h 133 W/m 6.1 C 12.5 C
18.09.2005 15:00 13.0 C 63 % 1020.9 hPa 0.0 l/m 9.9 km/h (2 Bft) O-NO 0.00 h 175 W/m 6.1 C 13.0 C
18.09.2005 16:00 13.2 C 62 % 1020.9 hPa 0.0 l/m 9.4 km/h (2 Bft) O-SO 0.00 h 94 W/m 6.1 C 13.2 C
18.09.2005 17:00 13.2 C 60 % 1020.9 hPa 0.0 l/m 6.6 km/h (2 Bft) O 0.00 h 59 W/m 5.7 C 13.2 C
18.09.2005 18:00 13.1 C 59 % 1020.9 hPa 0.0 l/m 7.0 km/h (2 Bft) O 0.00 h 24 W/m 5.2 C 13.1 C
18.09.2005 19:00 13.0 C 52 % 1020.9 hPa 0.0 l/m 6.9 km/h (2 Bft) O 0.00 h 8 W/m 3.5 C 13.0 C
18.09.2005 20:00 12.3 C 54 % 1021.6 hPa 0.0 l/m 0.7 km/h (0 Bft) NO 0.00 h 0 W/m 3.3 C 12.3 C
18.09.2005 21:00 11.7 C 52 % 1022.1 hPa 0.0 l/m 2.9 km/h (1 Bft) NO 0.00 h 0 W/m 2.3 C 11.7 C
18.09.2005 22:00 10.8 C 53 % 1022.3 hPa 0.0 l/m 2.4 km/h (1 Bft) O-NO 0.00 h 0 W/m 1.7 C 10.8 C
18.09.2005 23:00 10.0 C 58 % 1022.4 hPa 0.0 l/m 3.1 km/h (1 Bft) O-NO 0.00 h 0 W/m 2.0 C 9.7 C
Min-Datum _ 18.09.05 16.09.05 16.09.05 - 12.09.05 - - - 18.09.05 18.09.05
_ Min-Zeit 07:15 13:50 13:48 - 00:00 - - - 21:44 07:43
Minimum _ 5.8 C 46 % 1005.0 hPa - 0.0 km/h (0 Bft) - - - 1.3 C 4.1 C
Max-Datum _ 13.09.05 12.09.05 14.09.05 17.09.05 16.09.05 - 13.09.05 12.09.05 14.09.05 13.09.05
_ Max-Zeit 17:03 04:28 23:53 01:06 15:40 - 12:33 14:46 10:18 17:03
Maximum _ 24.2 C 100 % 1026.0 hPa 2.3 l/m 46.0 km/h
NW (6 Bft)
- 0.05 h 877 W/m 16.6 C 24.2 C
Durchschnitt _ 15.0 C 82 % 1018.4 hPa #18.9 l/m 3.8 km/h (1 Bft) W-NW #19:44 h 201 W/m 11.6 C 15.0 C

Durchschnitt Minimum Temp.14.5 C
Durchschnitt Maximum Temp.15.5 C
© Kaiko 2005